Time;durP1;ratioP1;P1;durP2;ratioP2;P2;SDS_P1;SDS_P2;PMS_P1;PMS_P2;Temp;Humidity;BMP_temperature;BMP_pressure;BME280_temperature;BME280_humidity;BME280_pressure;Samples;Min_cycle;Max_cycle;Signal;HPM_P1;HPM_P2
2024/05/08 00:00:38;;;;;;;26.85;13.25;;;;;;;8.61;59.77;102440.88;5333612;26;20000;-64
2024/05/08 00:03:06;;;;;;;24.15;13.75;;;;;;;8.59;59.87;102447.84;5360643;26;20019;-66
2024/05/08 00:05:32;;;;;;;21.90;12.10;;;;;;;8.54;59.76;102448.75;5328408;26;20073;-65
2024/05/08 00:07:58;;;;;;;22.92;11.75;;;;;;;8.53;59.95;102452.19;5360044;26;20000;-66
2024/05/08 00:10:23;;;;;;;28.25;12.55;;;;;;;8.43;60.14;102460.09;5357989;26;20046;-66
2024/05/08 00:12:49;;;;;;;23.95;12.23;;;;;;;8.60;60.14;102452.16;5343998;26;21573;-65
2024/05/08 00:15:14;;;;;;;23.48;12.90;;;;;;;8.49;60.23;102454.84;5352140;26;20472;-65
2024/05/08 00:17:40;;;;;;;26.17;12.82;;;;;;;8.53;60.30;102452.19;5355254;26;20012;-65
2024/05/08 00:20:06;;;;;;;23.52;13.07;;;;;;;8.62;60.30;102447.81;5365859;26;20011;-65
2024/05/08 00:22:31;;;;;;;26.80;13.52;;;;;;;8.63;60.39;102452.13;5317491;26;20577;-62
2024/05/08 00:24:57;;;;;;;23.88;13.05;;;;;;;8.68;60.27;102447.78;5365863;26;20097;-64
2024/05/08 00:27:22;;;;;;;31.33;13.85;;;;;;;8.66;60.31;102452.13;5351313;26;20432;-65
2024/05/08 00:29:47;;;;;;;27.15;12.90;;;;;;;8.71;60.08;102455.59;5357447;26;20030;-65
2024/05/08 00:32:13;;;;;;;24.35;12.50;;;;;;;8.79;60.42;102448.59;5354269;26;20038;-65
2024/05/08 00:34:39;;;;;;;24.30;13.07;;;;;;;8.87;60.08;102452.00;5361903;26;20681;-65
2024/05/08 00:37:05;;;;;;;21.23;12.38;;;;;;;8.82;59.79;102452.94;5361523;26;20369;-65
2024/05/08 00:39:30;;;;;;;17.52;11.48;;;;;;;8.84;60.06;102454.63;5357286;26;20012;-65
2024/05/08 00:41:59;;;;;;;23.33;12.68;;;;;;;8.76;60.46;102454.72;5362134;26;20081;-64
2024/05/08 00:44:24;;;;;;;20.17;12.75;;;;;;;8.93;60.35;102457.16;5325899;26;20735;-65
2024/05/08 00:46:50;;;;;;;24.05;13.55;;;;;;;9.00;60.21;102452.78;5357790;26;20050;-66
2024/05/08 00:49:18;;;;;;;20.17;12.38;;;;;;;9.01;60.35;102454.53;5351652;26;20003;-64
2024/05/08 00:51:45;;;;;;;30.15;12.27;;;;;;;9.03;60.34;102457.09;5360271;26;20716;-65
2024/05/08 00:54:13;;;;;;;26.15;12.77;;;;;;;9.01;60.77;102456.25;5380694;26;20050;-64
2024/05/08 00:56:39;;;;;;;25.80;12.88;;;;;;;9.07;60.60;102456.19;5362451;26;20014;-65
2024/05/08 00:59:05;;;;;;;21.38;12.32;;;;;;;9.23;60.68;102455.19;5357873;26;20035;-66
2024/05/08 01:01:31;;;;;;;23.27;12.82;;;;;;;9.21;60.33;102459.56;5354946;26;20965;-65
2024/05/08 01:03:57;;;;;;;24.42;13.38;;;;;;;9.25;60.16;102456.03;5354592;26;20020;-65
2024/05/08 01:06:26;;;;;;;30.90;12.90;;;;;;;9.29;60.69;102451.66;5315893;26;20004;-65
2024/05/08 01:08:52;;;;;;;22.67;11.93;;;;;;;9.43;60.84;102456.72;5357491;26;20000;-65
2024/05/08 01:11:18;;;;;;;22.83;13.18;;;;;;;9.47;60.59;102450.59;5354187;26;20011;-65
2024/05/08 01:13:43;;;;;;;24.33;13.80;;;;;;;9.44;60.45;102450.66;5364362;26;21085;-64
2024/05/08 01:16:09;;;;;;;25.95;13.38;;;;;;;9.45;60.09;102448.00;5360221;26;20015;-62
2024/05/08 01:18:37;;;;;;;30.75;14.57;;;;;;;9.34;60.50;102452.47;5354894;26;20127;-63
2024/05/08 01:21:03;;;;;;;23.40;12.48;;;;;;;9.37;60.51;102444.63;5339104;26;20782;-64
2024/05/08 01:23:30;;;;;;;24.38;14.18;;;;;;;9.43;60.63;102441.06;5354149;26;20004;-63
2024/05/08 01:25:56;;;;;;;26.80;14.32;;;;;;;9.38;60.62;102451.56;5364945;26;20004;-64
2024/05/08 01:28:23;;;;;;;33.55;15.00;;;;;;;9.45;60.69;102445.41;5337075;26;20004;-65
2024/05/08 01:30:49;;;;;;;28.50;14.68;;;;;;;9.43;60.82;102446.28;5363602;26;20713;-65
2024/05/08 01:33:15;;;;;;;36.15;16.27;;;;;;;9.50;60.67;102447.94;5356155;26;20139;-66
2024/05/08 01:35:44;;;;;;;31.05;15.52;;;;;;;9.47;60.40;102448.84;5365481;26;20079;-65
2024/05/08 01:38:12;;;;;;;33.40;16.30;;;;;;;9.53;60.68;102447.94;5365795;26;20520;-67
2024/05/08 01:40:38;;;;;;;30.63;15.13;;;;;;;9.53;60.36;102453.16;5343103;26;20701;-65
2024/05/08 01:43:04;;;;;;;33.55;14.15;;;;;;;9.51;60.18;102449.69;5360269;26;20043;-67
2024/05/08 01:45:29;;;;;;;32.60;14.63;;;;;;;9.41;60.52;102448.94;5358728;26;20016;-65
2024/05/08 01:47:56;;;;;;;34.38;14.57;;;;;;;9.39;60.43;102448.94;5360501;26;20317;-64
2024/05/08 01:50:21;;;;;;;32.28;14.68;;;;;;;9.37;60.80;102458.53;5339316;26;20077;-64
2024/05/08 01:52:47;;;;;;;30.38;14.98;;;;;;;9.44;60.53;102450.66;5362891;26;20628;-65
2024/05/08 01:55:12;;;;;;;27.00;13.55;;;;;;;9.54;60.39;102444.44;5390906;26;20007;-65
2024/05/08 01:57:40;;;;;;;27.20;14.93;;;;;;;9.49;60.24;102446.25;5363635;26;20458;-65
2024/05/08 02:00:07;;;;;;;31.10;15.30;;;;;;;9.47;60.14;102448.00;5360532;26;20003;-65
2024/05/08 02:02:39;;;;;;;31.83;14.23;;;;;;;9.38;59.93;102447.19;5356011;26;20012;-65
2024/05/08 02:05:06;;;;;;;34.20;14.48;;;;;;;9.33;59.81;102451.63;5359033;26;20007;-65
2024/05/08 02:07:34;;;;;;;34.83;16.30;;;;;;;9.36;59.34;102458.53;5358117;26;20003;-65
2024/05/08 02:09:59;;;;;;;28.33;14.40;;;;;;;9.26;59.31;102457.78;5338677;26;21067;-65
2024/05/08 02:12:25;;;;;;;25.42;13.05;;;;;;;9.14;59.54;102450.03;5356780;26;20007;-64
2024/05/08 02:14:50;;;;;;;22.77;12.45;;;;;;;9.00;59.49;102455.38;5357125;26;20019;-65
2024/05/08 02:17:18;;;;;;;24.45;13.43;;;;;;;8.89;59.83;102460.69;5369582;26;20055;-65
2024/05/08 02:19:43;;;;;;;24.45;13.80;;;;;;;8.81;59.79;102461.59;5345954;26;20182;-65
2024/05/08 02:22:09;;;;;;;26.92;12.63;;;;;;;8.83;59.79;102458.13;5363936;26;20007;-64
2024/05/08 02:24:34;;;;;;;23.05;12.63;;;;;;;8.77;59.69;102461.63;5355430;26;20015;-64
2024/05/08 02:27:00;;;;;;;28.48;14.30;;;;;;;8.68;59.84;102460.81;5359818;26;22543;-65
2024/05/08 02:29:25;;;;;;;29.55;15.65;;;;;;;8.66;60.33;102467.78;5357289;26;20014;-64
2024/05/08 02:31:51;;;;;;;24.17;14.40;;;;;;;8.65;60.74;102466.91;5360210;26;20065;-65
2024/05/08 02:34:16;;;;;;;22.90;13.70;;;;;;;8.71;60.54;102469.50;5367944;26;20015;-66
2024/05/08 02:36:41;;;;;;;26.85;13.80;;;;;;;8.73;60.49;102469.50;5353055;26;20078;-67
2024/05/08 02:39:08;;;;;;;31.15;15.05;;;;;;;8.82;60.27;102464.22;5350613;26;22265;-65
2024/05/08 02:41:33;;;;;;;25.02;13.60;;;;;;;8.75;60.32;102475.56;5325734;26;20007;-66
2024/05/08 02:43:59;;;;;;;27.33;13.15;;;;;;;8.77;60.38;102466.84;5359613;26;20098;-66
2024/05/08 02:46:25;;;;;;;22.48;11.70;;;;;;;8.81;60.35;102469.44;5322318;26;20037;-68
2024/05/08 02:48:52;;;;;;;20.05;11.75;;;;;;;8.77;60.29;102477.28;5354882;26;20011;-67
2024/05/08 02:51:17;;;;;;;22.90;12.05;;;;;;;8.83;60.21;102485.94;5370607;26;20077;-66
2024/05/08 02:53:43;;;;;;;23.85;12.25;;;;;;;8.83;60.10;102485.94;5353179;26;20015;-65
2024/05/08 02:56:08;;;;;;;23.67;13.02;;;;;;;8.83;60.08;102484.22;5359521;26;20041;-66
2024/05/08 02:58:36;;;;;;;19.50;12.38;;;;;;;8.86;59.98;102492.00;5353250;26;20023;-67
2024/05/08 03:01:01;;;;;;;22.23;12.50;;;;;;;8.83;60.17;102486.81;5364041;26;20361;-65
2024/05/08 03:03:27;;;;;;;22.88;13.27;;;;;;;8.77;59.92;102477.28;5355005;26;20003;-65
2024/05/08 03:05:52;;;;;;;25.80;12.32;;;;;;;8.80;60.43;102486.81;5364521;26;20003;-64
2024/05/08 03:08:18;;;;;;;20.65;11.75;;;;;;;8.87;60.12;102490.25;5361233;26;20021;-65
2024/05/08 03:10:46;;;;;;;17.38;10.48;;;;;;;8.88;59.92;102490.25;5355747;26;20014;-65
2024/05/08 03:13:11;;;;;;;29.27;13.10;;;;;;;8.89;59.88;102489.34;5338930;26;20143;-65
2024/05/08 03:15:37;;;;;;;16.58;9.63;;;;;;;8.84;59.92;102490.28;5356078;26;20003;-65
2024/05/08 03:18:03;;;;;;;17.00;10.07;;;;;;;8.90;59.64;102496.31;5357920;26;20014;-63
2024/05/08 03:20:29;;;;;;;34.33;10.82;;;;;;;8.90;59.48;102501.53;5352927;26;20007;-64
2024/05/08 03:22:55;;;;;;;19.45;10.63;;;;;;;8.96;59.81;102500.59;5361051;26;20524;-65
2024/05/08 03:25:25;;;;;;;26.83;13.48;;;;;;;9.04;59.92;102497.97;5364441;26;20142;-65
2024/05/08 03:27:51;;;;;;;18.67;11.07;;;;;;;8.90;59.08;102498.06;5362481;26;20021;-64
2024/05/08 03:30:16;;;;;;;34.60;11.27;;;;;;;8.80;59.60;102504.22;5357719;26;20532;-65
2024/05/08 03:32:42;;;;;;;35.67;12.20;;;;;;;8.73;59.81;102506.00;5352988;26;20471;-63
2024/05/08 03:35:07;;;;;;;21.85;11.90;;;;;;;8.89;60.06;102512.81;5354594;26;20047;-66
2024/05/08 03:37:33;;;;;;;19.52;10.70;;;;;;;9.01;59.96;102516.22;5354545;26;20021;-67
2024/05/08 03:39:58;;;;;;;18.65;10.30;;;;;;;9.09;59.73;102512.69;5360050;26;20016;-65
2024/05/08 03:42:24;;;;;;;17.63;11.13;;;;;;;9.12;59.84;102520.50;5351229;26;20084;-64
2024/05/08 03:44:49;;;;;;;16.42;9.80;;;;;;;9.13;59.55;102519.63;5364271;26;20565;-65
2024/05/08 03:47:15;;;;;;;16.35;10.10;;;;;;;9.08;59.20;102513.56;5355539;26;20004;-65
2024/05/08 03:49:40;;;;;;;17.35;10.02;;;;;;;9.02;59.42;102526.66;5355740;26;20353;-65
2024/05/08 03:52:06;;;;;;;18.52;11.00;;;;;;;9.03;59.42;102524.91;5357578;26;20054;-65
2024/05/08 03:54:33;;;;;;;32.67;13.10;;;;;;;9.07;59.77;102526.63;5355451;26;20019;-65
2024/05/08 03:56:59;;;;;;;17.75;9.88;;;;;;;9.11;59.58;102531.81;5355759;26;20004;-65
2024/05/08 03:59:24;;;;;;;39.28;10.90;;;;;;;9.14;59.14;102528.28;5333409;26;21227;-64
2024/05/08 04:01:52;;;;;;;50.65;12.07;;;;;;;9.19;59.36;102537.84;5358097;26;21057;-65
2024/05/08 04:04:17;;;;;;;18.20;9.95;;;;;;;9.23;59.49;102536.09;5359480;26;20008;-64
2024/05/08 04:06:43;;;;;;;16.70;9.93;;;;;;;9.28;59.36;102547.34;5351541;26;21035;-64
2024/05/08 04:09:09;;;;;;;24.77;10.45;;;;;;;9.31;59.48;102538.63;5361761;26;20003;-65
2024/05/08 04:11:41;;;;;;;21.33;10.02;;;;;;;9.26;59.44;102549.09;5352440;26;20014;-65
2024/05/08 04:14:06;;;;;;;22.52;10.35;;;;;;;9.16;59.18;102544.81;5320246;26;20022;-63
2024/05/08 04:16:32;;;;;;;18.60;10.75;;;;;;;9.19;59.15;102545.66;5352785;26;20147;-64
2024/05/08 04:18:58;;;;;;;25.20;12.05;;;;;;;9.23;59.32;102545.63;5363818;26;20046;-65
2024/05/08 04:21:24;;;;;;;20.65;11.52;;;;;;;9.18;59.45;102551.75;5355884;26;20012;-64
2024/05/08 04:23:49;;;;;;;20.48;12.13;;;;;;;9.31;59.74;102562.09;5319036;26;20011;-65
2024/05/08 04:26:15;;;;;;;22.95;12.40;;;;;;;9.40;59.42;102557.66;5354751;26;20039;-64
2024/05/08 04:28:40;;;;;;;37.08;13.60;;;;;;;9.32;58.60;102558.59;5355603;26;20011;-65
2024/05/08 04:31:06;;;;;;;22.45;12.68;;;;;;;9.43;59.32;102561.97;5350284;26;20022;-63
2024/05/08 04:33:31;;;;;;;24.58;11.77;;;;;;;9.49;59.10;102556.72;5355204;26;20116;-65
2024/05/08 04:35:57;;;;;;;24.48;12.75;;;;;;;9.36;59.02;102558.56;5361215;26;20004;-67
2024/05/08 04:38:22;;;;;;;23.85;12.77;;;;;;;9.39;59.06;102566.38;5358788;26;23001;-65
2024/05/08 04:40:48;;;;;;;24.15;11.70;;;;;;;9.46;59.12;102561.97;5353417;26;20285;-66
2024/05/08 04:43:13;;;;;;;20.08;11.55;;;;;;;9.48;59.32;102565.44;5383106;26;20011;-65
2024/05/08 04:45:39;;;;;;;21.25;12.45;;;;;;;9.51;59.09;102569.78;5356166;26;20004;-67
2024/05/08 04:48:07;;;;;;;20.73;11.85;;;;;;;9.58;59.43;102567.06;5364839;26;20409;-68
2024/05/08 04:50:32;;;;;;;34.35;10.88;;;;;;;9.63;58.68;102569.66;5327603;26;20022;-69
2024/05/08 04:52:58;;;;;;;26.65;11.63;;;;;;;9.67;59.25;102570.50;5368015;26;20792;-69
2024/05/08 04:55:23;;;;;;;20.52;12.07;;;;;;;9.84;59.39;102579.06;5363852;26;20140;-67
2024/05/08 04:57:50;;;;;;;23.27;11.95;;;;;;;9.95;59.21;102573.75;5353654;26;20003;-68
2024/05/08 05:00:15;;;;;;;23.60;12.48;;;;;;;9.94;59.18;102580.69;5359172;26;20031;-68
2024/05/08 05:02:41;;;;;;;32.13;13.20;;;;;;;10.05;58.85;102588.44;5342132;26;20020;-65
2024/05/08 05:05:07;;;;;;;29.58;12.43;;;;;;;10.02;58.60;102581.50;5369316;26;20007;-67
2024/05/08 05:07:33;;;;;;;34.17;13.43;;;;;;;9.87;58.93;102586.88;5350174;26;20417;-68
2024/05/08 05:09:59;;;;;;;29.67;13.95;;;;;;;9.98;59.18;102581.53;5365865;26;20660;-65
2024/05/08 05:12:25;;;;;;;24.70;12.57;;;;;;;10.11;59.43;102583.16;5358397;26;20449;-65
2024/05/08 05:14:53;;;;;;;31.42;14.23;;;;;;;10.20;59.07;102582.19;5359921;26;20040;-64
2024/05/08 05:17:19;;;;;;;34.80;16.08;;;;;;;10.15;58.71;102579.63;5349867;26;20003;-67
2024/05/08 05:19:44;;;;;;;33.10;14.02;;;;;;;10.19;58.80;102576.09;5340524;26;20018;-68
2024/05/08 05:22:10;;;;;;;29.60;16.75;;;;;;;10.24;58.65;102583.03;5360586;26;20407;-68
2024/05/08 05:24:36;;;;;;;33.03;15.57;;;;;;;10.27;58.69;102577.75;5355539;26;20073;-68
2024/05/08 05:27:02;;;;;;;33.58;15.85;;;;;;;10.38;58.71;102581.97;5367307;26;20059;-68
2024/05/08 05:29:27;;;;;;;28.17;13.60;;;;;;;10.35;58.15;102591.59;5360562;26;20397;-63
2024/05/08 05:34:37;;;;;;;37.20;15.32;;;;;;;10.59;59.12;102580.84;5354922;26;19999;-62
2024/05/08 05:37:04;;;;;;;35.97;16.23;;;;;;;10.76;57.85;102590.22;5364762;26;20026;-64
2024/05/08 05:39:30;;;;;;;37.78;16.15;;;;;;;10.84;58.00;102591.00;5359235;26;20590;-65
2024/05/08 05:47:23;;;;;;;29.90;13.73;;;;;;;11.10;55.99;102597.59;5356983;26;20051;-64
2024/05/08 05:49:49;;;;;;;29.88;15.00;;;;;;;11.04;56.45;102593.34;5358453;26;20000;-64
2024/05/08 05:52:14;;;;;;;30.92;14.65;;;;;;;11.02;57.03;102600.34;5337292;26;20012;-65
2024/05/08 05:54:40;;;;;;;28.00;14.55;;;;;;;11.02;56.89;102603.81;5357276;26;20399;-64
2024/05/08 05:57:05;;;;;;;31.20;14.20;;;;;;;11.12;57.08;102606.31;5367083;26;20003;-65
2024/05/08 05:59:31;;;;;;;26.10;13.32;;;;;;;11.22;56.06;102613.16;5356174;26;20026;-65
2024/05/08 06:01:57;;;;;;;25.58;12.90;;;;;;;11.32;56.20;102609.47;5346398;26;20053;-63
2024/05/08 06:04:22;;;;;;;30.20;14.57;;;;;;;11.18;55.19;102616.69;5358961;26;20526;-66
2024/05/08 06:06:47;;;;;;;30.98;14.20;;;;;;;11.32;55.08;102613.84;5356888;26;20093;-66
2024/05/08 06:09:13;;;;;;;23.88;14.43;;;;;;;11.21;55.22;102612.25;5363192;26;20011;-64
2024/05/08 06:11:39;;;;;;;24.58;14.35;;;;;;;11.19;55.33;102608.78;5352953;26;20777;-64
2024/05/08 06:14:05;;;;;;;29.40;13.60;;;;;;;11.31;55.24;102612.13;5357971;26;20057;-66
2024/05/08 06:16:30;;;;;;;29.67;14.07;;;;;;;11.48;55.34;102611.88;5369003;26;20007;-65
2024/05/08 06:18:56;;;;;;;25.48;14.10;;;;;;;11.57;54.77;102614.31;5356737;26;20420;-65
2024/05/08 06:21:22;;;;;;;28.17;14.52;;;;;;;11.68;54.26;102617.63;5356939;26;20005;-64
2024/05/08 06:23:51;;;;;;;27.35;15.05;;;;;;;11.77;54.29;102621.84;5346705;26;20144;-65
2024/05/08 06:26:16;;;;;;;29.85;15.18;;;;;;;11.73;54.53;102620.16;5360371;26;20008;-65
2024/05/08 06:28:42;;;;;;;21.38;13.73;;;;;;;11.67;54.81;102615.91;5349701;26;20514;-63
2024/05/08 06:31:08;;;;;;;23.17;13.70;;;;;;;11.92;54.00;102626.84;5368959;26;20018;-65
2024/05/08 06:33:36;;;;;;;37.78;13.85;;;;;;;11.98;53.48;102625.91;5356516;26;20012;-64
2024/05/08 06:36:02;;;;;;;24.95;13.88;;;;;;;12.09;53.41;102623.94;5366633;26;20023;-64
2024/05/08 06:38:27;;;;;;;20.40;13.30;;;;;;;12.20;52.50;102631.56;5362377;26;20022;-65
2024/05/08 06:40:53;;;;;;;22.45;12.88;;;;;;;12.23;52.64;102626.31;5352039;26;20720;-66
2024/05/08 06:43:18;;;;;;;27.30;14.75;;;;;;;12.40;51.86;102634.69;5365799;26;20094;-66
2024/05/08 06:45:44;;;;;;;23.17;12.82;;;;;;;12.72;51.62;102624.47;5348366;26;20007;-64
2024/05/08 06:48:13;;;;;;;21.75;13.23;;;;;;;12.78;50.83;102619.06;5370118;26;20004;-64
2024/05/08 06:50:40;;;;;;;22.60;13.18;;;;;;;12.95;50.69;102621.34;5346583;26;20010;-65
2024/05/08 06:53:07;;;;;;;24.95;12.85;;;;;;;13.37;50.06;102623.88;5366846;26;20011;-67
2024/05/08 06:55:33;;;;;;;21.85;13.23;;;;;;;13.91;48.94;102619.03;5327337;26;20427;-64
2024/05/08 06:58:00;;;;;;;19.80;12.55;;;;;;;14.59;47.65;102613.66;5353874;26;20019;-67
2024/05/08 07:00:26;;;;;;;25.20;13.18;;;;;;;15.73;45.01;102621.53;5357069;26;20003;-64
2024/05/08 07:02:51;;;;;;;25.40;13.00;;;;;;;18.32;39.67;102621.03;5325174;26;20599;-66
2024/05/08 07:05:18;;;;;;;20.65;13.13;;;;;;;20.30;35.41;102626.31;5361908;26;20007;-64
2024/05/08 07:07:49;;;;;;;19.60;12.75;;;;;;;21.64;33.19;102632.09;5335172;26;20015;-66
2024/05/08 07:10:15;;;;;;;19.20;12.07;;;;;;;21.69;32.54;102636.22;5360669;26;20018;-66
2024/05/08 07:12:41;;;;;;;19.15;12.73;;;;;;;20.25;34.33;102641.66;5343791;26;20047;-66
2024/05/08 07:15:06;;;;;;;23.70;13.80;;;;;;;19.74;35.18;102638.13;5361534;26;20015;-65
2024/05/08 07:17:32;;;;;;;23.45;13.57;;;;;;;19.21;36.46;102643.34;5360249;26;20019;-68
2024/05/08 07:19:57;;;;;;;22.20;13.45;;;;;;;17.79;37.49;102645.38;5352060;26;20938;-64
2024/05/08 07:22:23;;;;;;;19.35;13.05;;;;;;;16.70;39.88;102649.72;5330882;26;20003;-66
2024/05/08 07:24:48;;;;;;;20.90;14.25;;;;;;;15.63;42.94;102657.84;5349725;26;20011;-67
2024/05/08 07:27:14;;;;;;;27.23;13.80;;;;;;;14.98;44.82;102656.38;5358336;26;20021;-65
2024/05/08 07:29:39;;;;;;;19.52;12.32;;;;;;;15.82;43.60;102663.38;5319636;26;20015;-64
2024/05/08 07:32:05;;;;;;;18.92;13.02;;;;;;;17.68;40.40;102659.06;5361079;26;20007;-65
2024/05/08 07:34:30;;;;;;;21.73;13.15;;;;;;;19.56;36.16;102661.97;5360447;26;19999;-64
2024/05/08 07:36:56;;;;;;;19.92;11.52;;;;;;;20.55;34.53;102665.69;5313653;26;20055;-63
2024/05/08 07:39:21;;;;;;;24.23;13.52;;;;;;;20.49;33.99;102669.53;5361328;26;20004;-63
2024/05/08 07:41:47;;;;;;;23.17;13.10;;;;;;;19.20;35.45;102665.47;5348103;26;20025;-65
2024/05/08 07:44:12;;;;;;;25.65;12.90;;;;;;;18.63;37.68;102669.91;5362246;26;20058;-64
2024/05/08 07:46:38;;;;;;;18.95;12.10;;;;;;;17.63;37.74;102672.47;5361222;26;20007;-65
2024/05/08 07:49:07;;;;;;;19.13;11.90;;;;;;;16.45;39.03;102670.88;5366113;26;20014;-65
2024/05/08 07:51:33;;;;;;;15.82;11.45;;;;;;;16.43;39.42;102673.56;5364464;26;20080;-64
2024/05/08 07:53:59;;;;;;;20.23;11.15;;;;;;;19.28;35.01;102657.16;5352071;26;20004;-68
2024/05/08 07:56:24;;;;;;;17.33;11.80;;;;;;;21.25;32.12;102663.59;5363159;26;20022;-65
2024/05/08 07:58:49;;;;;;;16.20;10.02;;;;;;;23.08;30.10;102662.25;5340848;26;22191;-63
2024/05/08 08:01:15;;;;;;;16.15;9.90;;;;;;;24.74;26.11;102669.56;5365516;26;20019;-63
2024/05/08 08:03:41;;;;;;;14.23;10.38;;;;;;;24.71;26.66;102667.13;5350357;26;20061;-63
2024/05/08 08:06:06;;;;;;;13.45;10.00;;;;;;;24.82;25.72;102656.50;5363562;26;20004;-65
2024/05/08 08:08:32;;;;;;;17.80;11.38;;;;;;;25.02;26.44;102660.41;5352016;26;20018;-63
2024/05/08 08:10:59;;;;;;;17.13;10.90;;;;;;;23.23;27.50;102668.38;5353684;26;20705;-63
2024/05/08 08:13:25;;;;;;;17.98;9.02;;;;;;;23.72;26.62;102671.31;5360774;26;20022;-64
2024/05/08 08:15:50;;;;;;;14.38;9.85;;;;;;;24.23;25.96;102675.81;5350423;26;20007;-65
2024/05/08 08:18:16;;;;;;;14.88;9.93;;;;;;;24.41;25.51;102669.22;5309615;26;20021;-63
2024/05/08 08:20:42;;;;;;;13.15;9.63;;;;;;;25.17;25.18;102663.75;5357047;26;20088;-63
2024/05/08 08:23:12;;;;;;;14.70;9.95;;;;;;;24.68;25.68;102668.16;5360850;26;20488;-63
2024/05/08 08:25:38;;;;;;;;;;;;;;;24.16;26.22;102663.88;5360341;26;19999;-64
2024/05/08 08:28:04;;;;;;;18.33;10.48;;;;;;;23.58;26.30;102663.38;5356818;26;19925;-64
2024/05/08 08:30:30;;;;;;;14.50;9.07;;;;;;;25.24;25.35;102667.66;5367426;26;20044;-64
2024/05/08 08:32:55;;;;;;;13.27;9.10;;;;;;;26.11;23.49;102661.97;5351321;26;20403;-64
2024/05/08 08:35:21;;;;;;;11.43;9.13;;;;;;;25.15;25.12;102652.28;5361600;26;20015;-64
2024/05/08 08:37:46;;;;;;;14.90;9.60;;;;;;;25.37;24.91;102652.38;5351364;26;19999;-65
2024/05/08 08:40:12;;;;;;;12.00;7.72;;;;;;;25.57;25.15;102661.59;5361803;26;20008;-64
2024/05/08 08:42:42;;;;;;;17.02;9.68;;;;;;;25.37;24.99;102655.06;5362345;26;20008;-63
2024/05/08 08:45:10;;;;;;;16.87;9.97;;;;;;;24.97;26.67;102655.41;5326007;26;19999;-65
2024/05/08 08:47:36;;;;;;;13.00;9.60;;;;;;;25.35;25.48;102654.34;5364640;26;20004;-65
2024/05/08 08:50:01;;;;;;;12.18;9.60;;;;;;;25.23;25.95;102656.09;5347072;26;20003;-64
2024/05/08 08:52:30;;;;;;;9.02;7.50;;;;;;;25.62;25.04;102656.78;5364906;26;20701;-64
2024/05/08 08:54:56;;;;;;;13.32;8.50;;;;;;;24.97;25.21;102658.06;5349361;26;20536;-64
2024/05/08 08:57:23;;;;;;;14.65;8.38;;;;;;;24.76;25.25;102656.94;5362155;26;20257;-65
2024/05/08 09:00:02;;;;;;;13.20;8.73;;;;;;;24.39;25.00;102665.78;5332521;26;20036;-64
2024/05/08 09:02:35;;;;;;;9.90;7.72;;;;;;;23.38;25.87;102664.72;5364053;26;20019;-64
2024/05/08 09:05:03;;;;;;;12.35;8.13;;;;;;;23.16;26.69;102665.25;5351654;26;20008;-64
2024/05/08 09:07:30;;;;;;;9.38;6.60;;;;;;;21.79;27.96;102667.59;5365547;26;20015;-63
2024/05/08 09:09:56;;;;;;;10.35;6.57;;;;;;;21.38;29.35;102668.19;5347246;26;20008;-64
2024/05/08 09:12:21;;;;;;;17.30;10.25;;;;;;;21.83;29.10;102671.78;5361601;26;20084;-62
2024/05/08 09:14:53;;;;;;;11.40;7.00;;;;;;;21.79;28.56;102672.91;5359052;26;20008;-63
2024/05/08 09:17:19;;;;;;;11.20;7.57;;;;;;;20.52;29.46;102680.00;5366783;26;20076;-64
2024/05/08 09:19:44;;;;;;;13.18;7.47;;;;;;;19.27;32.37;102666.88;5364984;26;20011;-64
2024/05/08 09:22:10;;;;;;;11.93;6.90;;;;;;;18.80;32.93;102670.00;5357208;26;20007;-64
2024/05/08 09:24:35;;;;;;;12.23;7.70;;;;;;;18.34;32.81;102669.47;5366471;26;20018;-65
2024/05/08 09:27:01;;;;;;;11.35;6.85;;;;;;;17.72;34.22;102679.16;5344529;26;20073;-64
2024/05/08 09:29:26;;;;;;;12.18;6.43;;;;;;;18.57;32.03;102667.56;5365702;26;20000;-64
2024/05/08 09:31:52;;;;;;;13.07;7.63;;;;;;;18.14;33.16;102674.72;5351447;26;20481;-63
2024/05/08 09:34:20;;;;;;;8.20;5.95;;;;;;;17.70;32.79;102672.22;5370935;26;20007;-63
2024/05/08 09:36:47;;;;;;;7.57;4.55;;;;;;;18.14;33.16;102675.63;5365516;26;20260;-64
2024/05/08 09:39:13;;;;;;;10.02;5.85;;;;;;;19.03;32.02;102673.38;5367376;26;20039;-67
2024/05/08 09:41:39;;;;;;;9.48;6.75;;;;;;;19.77;31.54;102664.47;5349470;26;20008;-62
2024/05/08 09:44:07;;;;;;;10.45;6.28;;;;;;;19.99;30.11;102667.72;5358730;26;20092;-64
2024/05/08 09:46:58;;;;;;;8.73;5.53;;;;;;;20.99;29.52;102664.22;5373563;26;20008;-62
2024/05/08 09:49:30;;;;;;;8.13;4.75;;;;;;;21.47;29.17;102663.22;5370587;26;20004;-63
2024/05/08 09:52:08;;;;;;;11.20;6.65;;;;;;;21.15;30.44;102662.38;5352415;26;20039;-64
2024/05/08 09:54:39;;;;;;;13.52;7.43;;;;;;;20.58;31.25;102660.22;5373115;26;20054;-65
2024/05/08 09:57:06;;;;;;;8.75;6.38;;;;;;;20.54;31.05;102667.50;5353178;26;20012;-63
2024/05/08 09:59:32;;;;;;;7.65;4.95;;;;;;;20.77;29.16;102668.03;5369610;26;20015;-63
2024/05/08 10:01:58;;;;;;;10.57;4.55;;;;;;;19.83;28.69;102667.66;5352712;26;20375;-65
2024/05/08 10:04:24;;;;;;;9.77;3.88;;;;;;;18.58;30.03;102672.78;5372068;26;20043;-64
2024/05/08 10:06:57;;;;;;;6.00;4.28;;;;;;;17.94;30.93;102671.19;5355294;26;20014;-62
2024/05/08 10:09:25;;;;;;;7.22;4.55;;;;;;;18.04;33.45;102669.84;5371406;26;20004;-63
2024/05/08 10:12:01;;;;;;;8.18;4.18;;;;;;;17.69;32.93;102674.00;5352630;26;20346;-63
2024/05/08 10:14:27;;;;;;;7.28;5.38;;;;;;;18.40;32.80;102673.63;5364850;26;20058;-64
2024/05/08 10:17:03;;;;;;;5.15;3.97;;;;;;;19.63;30.03;102674.00;5351101;26;20026;-63
2024/05/08 10:19:29;;;;;;;7.38;6.15;;;;;;;20.42;32.95;102673.47;5363752;26;20514;-62
2024/05/08 10:21:55;;;;;;;9.48;6.88;;;;;;;21.03;32.73;102671.06;5336521;26;20047;-63
2024/05/08 10:24:26;;;;;;;8.48;6.20;;;;;;;20.70;32.02;102666.66;5367855;26;19999;-63
2024/05/08 10:26:56;;;;;;;7.05;6.15;;;;;;;20.68;32.27;102674.69;5351037;26;20703;-63
2024/05/08 10:29:21;;;;;;;8.63;6.18;;;;;;;20.17;32.30;102680.97;5366583;26;19999;-64
2024/05/08 10:31:52;;;;;;;11.90;6.22;;;;;;;18.84;33.43;102681.31;5363337;26;20117;-65
2024/05/08 10:34:18;;;;;;;7.40;5.37;;;;;;;18.11;34.92;102678.38;5366768;26;20003;-63
2024/05/08 10:36:43;;;;;;;8.18;6.03;;;;;;;17.99;35.49;102679.78;5363977;26;20076;-64
2024/05/08 10:39:11;;;;;;;10.13;6.13;;;;;;;17.43;35.67;102681.19;5354008;26;20016;-64
2024/05/08 10:41:37;;;;;;;12.07;7.13;;;;;;;17.93;35.55;102682.69;5367408;26;20097;-66
2024/05/08 10:44:03;;;;;;;7.95;6.03;;;;;;;18.09;35.05;102674.94;5352116;26;20022;-64
2024/05/08 10:46:29;;;;;;;9.57;6.05;;;;;;;18.02;35.97;102684.91;5336300;26;23212;-63
2024/05/08 10:48:55;;;;;;;9.95;5.35;;;;;;;17.63;35.39;102688.34;5355790;26;20345;-63
2024/05/08 10:51:22;;;;;;;9.45;5.88;;;;;;;16.99;37.02;102682.97;5365061;26;20011;-63
2024/05/08 10:53:51;;;;;;;8.98;5.47;;;;;;;16.76;37.70;102697.03;5368581;26;20003;-64
2024/05/08 10:56:16;;;;;;;12.43;5.90;;;;;;;16.65;38.29;102696.56;5350684;26;20014;-63
2024/05/08 10:58:48;;;;;;;10.32;5.63;;;;;;;16.72;38.59;102687.47;5355839;26;20698;-75
2024/05/08 11:01:14;;;;;;;9.07;5.95;;;;;;;16.52;38.81;102688.22;5325394;26;20019;-75
2024/05/08 11:03:47;;;;;;;9.18;6.40;;;;;;;17.29;37.59;102677.38;5326006;26;20040;-75
2024/05/08 11:06:23;;;;;;;14.60;6.38;;;;;;;17.51;37.02;102683.53;5291003;26;20079;-76
2024/05/08 11:09:00;;;;;;;11.05;6.00;;;;;;;17.77;36.73;102681.63;5326336;26;20013;-75
2024/05/08 11:11:36;;;;;;;12.02;5.43;;;;;;;18.05;36.91;102681.28;5325897;26;20027;-75
2024/05/08 11:14:03;;;;;;;10.10;6.18;;;;;;;18.81;35.08;102674.38;5284187;26;20089;-77
2024/05/08 11:16:29;;;;;;;10.07;7.25;;;;;;;18.82;35.40;102675.22;5256990;26;20005;-77
2024/05/08 11:18:55;;;;;;;10.23;5.43;;;;;;;19.18;34.63;102677.09;5290800;26;20020;-77
2024/05/08 11:21:20;;;;;;;8.88;5.40;;;;;;;18.74;34.24;102678.22;5285422;26;20147;-77